ASN logo
Accident
Last updated: 22 October 2017
Statuts:Enquête Préliminaire
Date:vendredi 17 mars 2017
Heure:ca 12:20
Type/Sous-type:Silhouette image of generic DC3T model; specific model in this crash may look slightly different
Basler BT-67 Turbo 67 (DC-3T)
Operated by:Private Air
On behalf of:Cargo North
Immatriculation: C-FKGL
Numéro de série: 19066
Année de Fabrication: 1943
Moteurs: 2 Pratt & Whitney Canada PT6A-67R
Equipage:victimes: 0 / à bord: 3
Passagers:victimes: 0 / à bord: 0
Total:victimes: 0 / à bord: 3
Dégats de l'appareil: Substantiels
Lieu de l'accident:1,3 km (0.8 milles) de Pickle Lake Airport, ON (YPL) (   Canada)
Phase de vol: En montée initiale (ICL)
Nature:Cargo
Aéroport de départ:Pickle Lake Airport, ON (YPL/CYPL), Canada
Aéroport de destination:Big Trout Airport, ON (YTL/CYTL), Canada
Numéro de vol:BF102
Détails:
The North Star Air DC-3C Turbine aircraft, registration C-FKGL was operated by Private Air as Flight BF102 from Pickle Lake to Big Trout Lake Airport (CYTL) in Ontario. After the rotation at 83 KIAS, the flight crew noted an absence of climb performance as the aircraft did not accelerate or achieve a positive rate of climb. The crew subsequently carried out a forced landing and came to rest 1,3 km from the departure end of runway 27 on the frozen surface of Pickle Lake. There were no injuries to the 3 occupants.
The aircraft sustained damage to the engines, propellers, and cowlings. The lower longerons and adjacent structures in the engine nacelles were damaged due to impact with the landing gear axles. The drag-brace attachment points of both landing gears were broken away. The engines were examined at an overhaul facility and there was no indication of any pre-impact conditions that would have contributed to the occurrence. Both propeller governors were functionally tested and were found to be operating normally with no PY air leakage. The aircraft's engines were replaced on the lake and repairs were made to allow the aircraft to depart Pickle Lake on a ferry flight to Thunder Bay, ON (CYQT) for further repairs.

Accident investigation:
Investigating agency: TSB Canada
Status: No formal investigation conducted
Accident number: A17C0028

Sources:
» Transport Canada

METAR Weather report:
17:00 UTC / 12:00 local time:
CYPL 171700Z 15005KT 3/4SM -SN VV006 M02/M03 A2978 RMK SN8 SLP107

17:34 UTC / 12:34 local time:
CYPL 171734Z 14007KT 3/4SM -SN VV005 M01/M03 A2978 RMK SN8 SLP106

18:00 UTC / 13:00 local time:
CYPL 171800Z 15006KT 5/8SM -SN VV005 M01/M03 A2977 RMK SN8 /S05/ SLP105


Photos

photo of Basler BT-67 Turbo 67 (DC-3T) C-FKGL
Off the ice after 11 days
Add your photo of this accident or aircraft
 

Video, social media

Plan
Ce plan montre l'aéroport de départ ainsi que la supposée destination du vol. La ligne fixe reliant les deux aéroports n'est pas le plan de vol exact.
La distance entre Pickle Lake Airport, ON et Big Trout Airport, ON est de 263 km (164 miles).

Les informations ci-dessus ne représentent pas l'opinion de la 'Flight Safety Foundation' ou de 'Aviation Safety Network' sur les causes de l'accident. Ces informations prélimimaires sont basées sur les faits tel qu'ils sont connus à ce jour.
languages: languages

Share